Terminal Aerodrome Forecast
Issued by NWS

Home | Current Version | Previous Version | Text Only | Print | Product List | Glossary On
Versions: 1 2 3 4 5 6 7 8 9 10 11 12
000
FTUS42 KTAE 102331
TAFABY
TAF
KABY 102331Z 1100/1124 00000KT P6SM SKC
     FM110700 07005KT P6SM SCT025
     FM111300 10006KT P6SM BKN040=

USA.gov is the U.S. government's official web portal to all federal, state and local government web resources and services.